sensor_id;sensor_type;location;lat;lon;timestamp;P1;durP1;ratioP1;P2;durP2;ratioP2
49241;SDS011;35079;52.704;13.814;2022-11-15T00:01:44;56.58;;;33.67;;
49241;SDS011;35079;52.704;13.814;2022-11-15T00:04:10;63.88;;;36.50;;
49241;SDS011;35079;52.704;13.814;2022-11-15T00:06:35;58.13;;;33.42;;
49241;SDS011;35079;52.704;13.814;2022-11-15T00:09:02;60.83;;;34.85;;
49241;SDS011;35079;52.704;13.814;2022-11-15T00:11:28;63.58;;;35.17;;
49241;SDS011;35079;52.704;13.814;2022-11-15T00:13:55;56.95;;;33.67;;
49241;SDS011;35079;52.704;13.814;2022-11-15T00:16:21;56.38;;;33.90;;
49241;SDS011;35079;52.704;13.814;2022-11-15T00:18:47;55.22;;;34.30;;
49241;SDS011;35079;52.704;13.814;2022-11-15T00:21:13;62.90;;;35.83;;
49241;SDS011;35079;52.704;13.814;2022-11-15T00:23:39;57.40;;;34.33;;
49241;SDS011;35079;52.704;13.814;2022-11-15T00:26:06;63.03;;;35.15;;
49241;SDS011;35079;52.704;13.814;2022-11-15T00:28:32;57.75;;;34.17;;
49241;SDS011;35079;52.704;13.814;2022-11-15T00:31:01;57.63;;;33.85;;
49241;SDS011;35079;52.704;13.814;2022-11-15T00:33:31;56.22;;;31.92;;
49241;SDS011;35079;52.704;13.814;2022-11-15T00:36:07;53.65;;;31.77;;
49241;SDS011;35079;52.704;13.814;2022-11-15T00:38:40;55.72;;;32.10;;
49241;SDS011;35079;52.704;13.814;2022-11-15T00:41:06;56.75;;;33.25;;
49241;SDS011;35079;52.704;13.814;2022-11-15T00:43:32;56.65;;;31.25;;
49241;SDS011;35079;52.704;13.814;2022-11-15T00:45:59;54.15;;;32.00;;
49241;SDS011;35079;52.704;13.814;2022-11-15T00:48:25;54.33;;;32.80;;
49241;SDS011;35079;52.704;13.814;2022-11-15T00:50:50;54.22;;;31.35;;
49241;SDS011;35079;52.704;13.814;2022-11-15T00:53:16;56.67;;;32.58;;
49241;SDS011;35079;52.704;13.814;2022-11-15T00:55:42;50.60;;;30.42;;
49241;SDS011;35079;52.704;13.814;2022-11-15T00:58:08;53.25;;;32.25;;
49241;SDS011;35079;52.704;13.814;2022-11-15T01:03:04;53.97;;;31.73;;
49241;SDS011;35079;52.704;13.814;2022-11-15T01:05:30;56.00;;;32.17;;
49241;SDS011;35079;52.704;13.814;2022-11-15T01:07:55;56.53;;;31.48;;
49241;SDS011;35079;52.704;13.814;2022-11-15T01:10:21;54.03;;;31.52;;
49241;SDS011;35079;52.704;13.814;2022-11-15T01:12:50;55.50;;;31.08;;
49241;SDS011;35079;52.704;13.814;2022-11-15T01:15:16;53.53;;;31.65;;
49241;SDS011;35079;52.704;13.814;2022-11-15T01:17:42;54.22;;;31.70;;
49241;SDS011;35079;52.704;13.814;2022-11-15T01:20:08;52.33;;;30.90;;
49241;SDS011;35079;52.704;13.814;2022-11-15T01:22:34;56.10;;;31.42;;
49241;SDS011;35079;52.704;13.814;2022-11-15T01:24:59;52.63;;;31.45;;
49241;SDS011;35079;52.704;13.814;2022-11-15T01:27:25;52.67;;;31.67;;
49241;SDS011;35079;52.704;13.814;2022-11-15T01:29:51;52.88;;;31.83;;
49241;SDS011;35079;52.704;13.814;2022-11-15T01:32:16;52.67;;;30.42;;
49241;SDS011;35079;52.704;13.814;2022-11-15T01:34:42;53.50;;;32.05;;
49241;SDS011;35079;52.704;13.814;2022-11-15T01:37:08;54.53;;;29.80;;
49241;SDS011;35079;52.704;13.814;2022-11-15T01:39:50;53.63;;;31.88;;
49241;SDS011;35079;52.704;13.814;2022-11-15T01:42:16;52.83;;;31.90;;
49241;SDS011;35079;52.704;13.814;2022-11-15T01:47:35;54.42;;;32.47;;
49241;SDS011;35079;52.704;13.814;2022-11-15T01:50:06;51.50;;;31.83;;
49241;SDS011;35079;52.704;13.814;2022-11-15T01:52:35;58.10;;;33.90;;
49241;SDS011;35079;52.704;13.814;2022-11-15T01:57:36;60.05;;;34.60;;
49241;SDS011;35079;52.704;13.814;2022-11-15T02:00:03;54.90;;;32.63;;
49241;SDS011;35079;52.704;13.814;2022-11-15T02:02:30;59.35;;;34.85;;
49241;SDS011;35079;52.704;13.814;2022-11-15T02:04:56;56.38;;;33.80;;
49241;SDS011;35079;52.704;13.814;2022-11-15T02:07:22;56.47;;;33.60;;
49241;SDS011;35079;52.704;13.814;2022-11-15T02:09:47;55.10;;;32.28;;
49241;SDS011;35079;52.704;13.814;2022-11-15T02:12:15;52.88;;;32.58;;
49241;SDS011;35079;52.704;13.814;2022-11-15T02:14:45;54.38;;;32.75;;
49241;SDS011;35079;52.704;13.814;2022-11-15T02:26:25;58.25;;;34.00;;
49241;SDS011;35079;52.704;13.814;2022-11-15T02:34:28;58.58;;;34.30;;
49241;SDS011;35079;52.704;13.814;2022-11-15T02:37:05;54.53;;;32.33;;
49241;SDS011;35079;52.704;13.814;2022-11-15T02:42:35;60.80;;;34.80;;
49241;SDS011;35079;52.704;13.814;2022-11-15T02:45:27;54.45;;;32.70;;
49241;SDS011;35079;52.704;13.814;2022-11-15T02:48:02;52.83;;;32.00;;
49241;SDS011;35079;52.704;13.814;2022-11-15T02:50:42;50.40;;;31.05;;
49241;SDS011;35079;52.704;13.814;2022-11-15T02:53:08;56.08;;;31.85;;
49241;SDS011;35079;52.704;13.814;2022-11-15T02:55:38;52.85;;;32.35;;
49241;SDS011;35079;52.704;13.814;2022-11-15T03:01:01;51.35;;;30.23;;
49241;SDS011;35079;52.704;13.814;2022-11-15T03:11:50;52.70;;;30.88;;
49241;SDS011;35079;52.704;13.814;2022-11-15T03:14:23;56.33;;;32.92;;
49241;SDS011;35079;52.704;13.814;2022-11-15T03:19:56;52.70;;;32.13;;
49241;SDS011;35079;52.704;13.814;2022-11-15T03:22:24;50.30;;;31.27;;
49241;SDS011;35079;52.704;13.814;2022-11-15T03:24:54;52.05;;;31.48;;
49241;SDS011;35079;52.704;13.814;2022-11-15T03:27:24;51.42;;;30.20;;
49241;SDS011;35079;52.704;13.814;2022-11-15T03:29:55;50.35;;;31.42;;
49241;SDS011;35079;52.704;13.814;2022-11-15T03:32:26;52.25;;;32.05;;
49241;SDS011;35079;52.704;13.814;2022-11-15T03:34:58;51.17;;;32.42;;
49241;SDS011;35079;52.704;13.814;2022-11-15T03:37:40;48.60;;;30.27;;
49241;SDS011;35079;52.704;13.814;2022-11-15T03:40:38;51.80;;;30.77;;
49241;SDS011;35079;52.704;13.814;2022-11-15T03:45:50;52.72;;;31.45;;
49241;SDS011;35079;52.704;13.814;2022-11-15T03:48:24;51.38;;;29.92;;
49241;SDS011;35079;52.704;13.814;2022-11-15T03:50:55;56.13;;;31.05;;
49241;SDS011;35079;52.704;13.814;2022-11-15T03:53:21;50.22;;;30.67;;
49241;SDS011;35079;52.704;13.814;2022-11-15T03:55:47;54.28;;;31.90;;
49241;SDS011;35079;52.704;13.814;2022-11-15T03:58:12;50.85;;;31.27;;
49241;SDS011;35079;52.704;13.814;2022-11-15T04:00:38;52.25;;;30.38;;
49241;SDS011;35079;52.704;13.814;2022-11-15T04:03:03;49.88;;;31.20;;
49241;SDS011;35079;52.704;13.814;2022-11-15T04:05:29;53.88;;;31.17;;
49241;SDS011;35079;52.704;13.814;2022-11-15T04:07:55;50.63;;;30.85;;
49241;SDS011;35079;52.704;13.814;2022-11-15T04:10:20;52.20;;;30.33;;
49241;SDS011;35079;52.704;13.814;2022-11-15T04:12:46;51.88;;;31.50;;
49241;SDS011;35079;52.704;13.814;2022-11-15T04:15:14;45.30;;;27.67;;
49241;SDS011;35079;52.704;13.814;2022-11-15T04:17:42;45.95;;;28.23;;
49241;SDS011;35079;52.704;13.814;2022-11-15T04:20:18;46.65;;;29.00;;
49241;SDS011;35079;52.704;13.814;2022-11-15T04:23:17;44.08;;;27.70;;
49241;SDS011;35079;52.704;13.814;2022-11-15T04:26:03;49.72;;;29.73;;
49241;SDS011;35079;52.704;13.814;2022-11-15T04:28:30;49.67;;;30.77;;
49241;SDS011;35079;52.704;13.814;2022-11-15T04:30:56;52.67;;;29.85;;
49241;SDS011;35079;52.704;13.814;2022-11-15T04:33:22;49.65;;;30.23;;
49241;SDS011;35079;52.704;13.814;2022-11-15T04:35:48;47.13;;;30.13;;
49241;SDS011;35079;52.704;13.814;2022-11-15T04:38:33;51.80;;;30.15;;
49241;SDS011;35079;52.704;13.814;2022-11-15T04:40:59;48.10;;;28.33;;
49241;SDS011;35079;52.704;13.814;2022-11-15T04:43:25;54.63;;;30.17;;
49241;SDS011;35079;52.704;13.814;2022-11-15T04:45:51;47.88;;;29.77;;
49241;SDS011;35079;52.704;13.814;2022-11-15T04:48:17;45.20;;;27.50;;
49241;SDS011;35079;52.704;13.814;2022-11-15T04:50:42;50.30;;;30.80;;
49241;SDS011;35079;52.704;13.814;2022-11-15T04:53:08;52.50;;;29.90;;
49241;SDS011;35079;52.704;13.814;2022-11-15T04:55:33;45.53;;;27.65;;
49241;SDS011;35079;52.704;13.814;2022-11-15T04:57:59;50.72;;;29.55;;
49241;SDS011;35079;52.704;13.814;2022-11-15T05:00:27;50.95;;;30.40;;
49241;SDS011;35079;52.704;13.814;2022-11-15T05:02:53;48.13;;;29.65;;
49241;SDS011;35079;52.704;13.814;2022-11-15T05:05:37;45.85;;;28.55;;
49241;SDS011;35079;52.704;13.814;2022-11-15T05:08:03;52.60;;;30.40;;
49241;SDS011;35079;52.704;13.814;2022-11-15T05:10:29;51.65;;;28.73;;
49241;SDS011;35079;52.704;13.814;2022-11-15T05:12:54;48.28;;;29.88;;
49241;SDS011;35079;52.704;13.814;2022-11-15T05:15:20;45.35;;;27.38;;
49241;SDS011;35079;52.704;13.814;2022-11-15T05:17:46;49.92;;;29.20;;
49241;SDS011;35079;52.704;13.814;2022-11-15T05:20:11;46.63;;;28.52;;
49241;SDS011;35079;52.704;13.814;2022-11-15T05:22:37;49.75;;;30.27;;
49241;SDS011;35079;52.704;13.814;2022-11-15T05:25:04;50.30;;;29.98;;
49241;SDS011;35079;52.704;13.814;2022-11-15T05:27:30;45.60;;;27.60;;
49241;SDS011;35079;52.704;13.814;2022-11-15T05:29:55;48.22;;;28.50;;
49241;SDS011;35079;52.704;13.814;2022-11-15T05:32:21;45.03;;;27.50;;
49241;SDS011;35079;52.704;13.814;2022-11-15T05:34:47;45.67;;;26.73;;
49241;SDS011;35079;52.704;13.814;2022-11-15T05:37:13;50.42;;;29.15;;
49241;SDS011;35079;52.704;13.814;2022-11-15T05:39:39;46.03;;;28.50;;
49241;SDS011;35079;52.704;13.814;2022-11-15T05:42:06;45.40;;;27.70;;
49241;SDS011;35079;52.704;13.814;2022-11-15T05:44:35;47.50;;;27.80;;
49241;SDS011;35079;52.704;13.814;2022-11-15T05:47:03;46.92;;;28.48;;
49241;SDS011;35079;52.704;13.814;2022-11-15T05:49:33;48.28;;;28.77;;
49241;SDS011;35079;52.704;13.814;2022-11-15T05:52:02;47.10;;;28.25;;
49241;SDS011;35079;52.704;13.814;2022-11-15T05:54:31;44.40;;;28.52;;
49241;SDS011;35079;52.704;13.814;2022-11-15T05:56:58;48.08;;;28.95;;
49241;SDS011;35079;52.704;13.814;2022-11-15T05:59:25;49.72;;;28.67;;
49241;SDS011;35079;52.704;13.814;2022-11-15T06:01:50;46.70;;;27.58;;
49241;SDS011;35079;52.704;13.814;2022-11-15T06:04:16;46.30;;;28.95;;
49241;SDS011;35079;52.704;13.814;2022-11-15T06:06:42;46.67;;;28.38;;
49241;SDS011;35079;52.704;13.814;2022-11-15T06:09:07;49.75;;;30.40;;
49241;SDS011;35079;52.704;13.814;2022-11-15T06:11:33;47.75;;;27.27;;
49241;SDS011;35079;52.704;13.814;2022-11-15T06:13:58;48.03;;;28.95;;
49241;SDS011;35079;52.704;13.814;2022-11-15T06:16:24;48.88;;;29.13;;
49241;SDS011;35079;52.704;13.814;2022-11-15T06:18:50;50.70;;;28.13;;
49241;SDS011;35079;52.704;13.814;2022-11-15T06:21:15;46.88;;;27.35;;
49241;SDS011;35079;52.704;13.814;2022-11-15T06:23:41;45.30;;;27.73;;
49241;SDS011;35079;52.704;13.814;2022-11-15T06:26:06;44.47;;;27.02;;
49241;SDS011;35079;52.704;13.814;2022-11-15T06:28:32;45.47;;;27.88;;
49241;SDS011;35079;52.704;13.814;2022-11-15T06:31:02;42.72;;;26.45;;
49241;SDS011;35079;52.704;13.814;2022-11-15T06:33:32;49.00;;;29.17;;
49241;SDS011;35079;52.704;13.814;2022-11-15T06:36:02;48.38;;;29.48;;
49241;SDS011;35079;52.704;13.814;2022-11-15T06:38:28;58.72;;;34.25;;
49241;SDS011;35079;52.704;13.814;2022-11-15T06:40:54;52.28;;;31.00;;
49241;SDS011;35079;52.704;13.814;2022-11-15T06:43:20;60.45;;;35.10;;
49241;SDS011;35079;52.704;13.814;2022-11-15T06:45:45;53.08;;;35.22;;
49241;SDS011;35079;52.704;13.814;2022-11-15T06:48:11;53.83;;;31.88;;
49241;SDS011;35079;52.704;13.814;2022-11-15T06:50:36;46.05;;;28.75;;
49241;SDS011;35079;52.704;13.814;2022-11-15T06:53:05;43.75;;;27.48;;
49241;SDS011;35079;52.704;13.814;2022-11-15T06:55:31;44.78;;;28.00;;
49241;SDS011;35079;52.704;13.814;2022-11-15T06:57:56;46.47;;;29.55;;
49241;SDS011;35079;52.704;13.814;2022-11-15T07:00:22;58.95;;;41.28;;
49241;SDS011;35079;52.704;13.814;2022-11-15T07:02:48;45.75;;;30.02;;
49241;SDS011;35079;52.704;13.814;2022-11-15T07:05:14;45.85;;;27.77;;
49241;SDS011;35079;52.704;13.814;2022-11-15T07:07:40;40.00;;;25.30;;
49241;SDS011;35079;52.704;13.814;2022-11-15T07:10:07;46.40;;;28.80;;
49241;SDS011;35079;52.704;13.814;2022-11-15T07:12:33;40.85;;;25.70;;
49241;SDS011;35079;52.704;13.814;2022-11-15T07:14:59;42.30;;;26.17;;
49241;SDS011;35079;52.704;13.814;2022-11-15T07:17:24;37.92;;;24.25;;
49241;SDS011;35079;52.704;13.814;2022-11-15T07:19:50;38.80;;;25.23;;
49241;SDS011;35079;52.704;13.814;2022-11-15T07:22:18;39.70;;;24.80;;
49241;SDS011;35079;52.704;13.814;2022-11-15T07:24:44;35.63;;;23.63;;
49241;SDS011;35079;52.704;13.814;2022-11-15T07:27:10;36.78;;;24.38;;
49241;SDS011;35079;52.704;13.814;2022-11-15T07:29:35;31.95;;;22.33;;
49241;SDS011;35079;52.704;13.814;2022-11-15T07:32:01;32.67;;;22.23;;
49241;SDS011;35079;52.704;13.814;2022-11-15T07:34:43;33.50;;;21.92;;
49241;SDS011;35079;52.704;13.814;2022-11-15T07:37:11;32.97;;;21.52;;
49241;SDS011;35079;52.704;13.814;2022-11-15T07:39:36;31.25;;;21.40;;
49241;SDS011;35079;52.704;13.814;2022-11-15T07:42:02;31.50;;;21.05;;
49241;SDS011;35079;52.704;13.814;2022-11-15T07:44:47;32.25;;;21.33;;
49241;SDS011;35079;52.704;13.814;2022-11-15T07:47:12;29.42;;;20.92;;
49241;SDS011;35079;52.704;13.814;2022-11-15T07:49:38;29.58;;;20.80;;
49241;SDS011;35079;52.704;13.814;2022-11-15T07:52:04;34.53;;;22.38;;
49241;SDS011;35079;52.704;13.814;2022-11-15T07:54:29;31.85;;;21.15;;
49241;SDS011;35079;52.704;13.814;2022-11-15T07:56:55;32.05;;;21.48;;
49241;SDS011;35079;52.704;13.814;2022-11-15T07:59:20;29.30;;;19.73;;
49241;SDS011;35079;52.704;13.814;2022-11-15T08:01:46;30.33;;;20.25;;
49241;SDS011;35079;52.704;13.814;2022-11-15T08:04:12;32.30;;;22.38;;
49241;SDS011;35079;52.704;13.814;2022-11-15T08:06:38;32.00;;;22.70;;
49241;SDS011;35079;52.704;13.814;2022-11-15T08:09:03;27.70;;;19.75;;
49241;SDS011;35079;52.704;13.814;2022-11-15T08:11:29;34.97;;;22.15;;
49241;SDS011;35079;52.704;13.814;2022-11-15T08:13:54;30.10;;;21.80;;
49241;SDS011;35079;52.704;13.814;2022-11-15T08:16:20;31.08;;;20.52;;
49241;SDS011;35079;52.704;13.814;2022-11-15T08:18:46;31.70;;;21.80;;
49241;SDS011;35079;52.704;13.814;2022-11-15T08:21:12;30.98;;;20.88;;
49241;SDS011;35079;52.704;13.814;2022-11-15T08:23:43;34.17;;;21.67;;
49241;SDS011;35079;52.704;13.814;2022-11-15T08:26:08;33.22;;;22.25;;
49241;SDS011;35079;52.704;13.814;2022-11-15T08:28:34;33.20;;;23.30;;
49241;SDS011;35079;52.704;13.814;2022-11-15T08:31:00;29.52;;;20.60;;
49241;SDS011;35079;52.704;13.814;2022-11-15T08:33:26;30.90;;;19.80;;
49241;SDS011;35079;52.704;13.814;2022-11-15T08:35:55;32.40;;;21.67;;
49241;SDS011;35079;52.704;13.814;2022-11-15T08:38:25;30.75;;;20.77;;
49241;SDS011;35079;52.704;13.814;2022-11-15T08:40:52;30.65;;;21.33;;
49241;SDS011;35079;52.704;13.814;2022-11-15T08:43:23;32.85;;;22.42;;
49241;SDS011;35079;52.704;13.814;2022-11-15T08:45:49;31.35;;;21.25;;
49241;SDS011;35079;52.704;13.814;2022-11-15T08:48:14;26.85;;;19.95;;
49241;SDS011;35079;52.704;13.814;2022-11-15T08:50:40;27.20;;;19.23;;
49241;SDS011;35079;52.704;13.814;2022-11-15T08:53:06;26.05;;;18.15;;
49241;SDS011;35079;52.704;13.814;2022-11-15T08:55:35;24.05;;;16.88;;
49241;SDS011;35079;52.704;13.814;2022-11-15T08:58:02;23.00;;;16.67;;
49241;SDS011;35079;52.704;13.814;2022-11-15T09:00:28;25.35;;;19.10;;
49241;SDS011;35079;52.704;13.814;2022-11-15T09:02:54;25.08;;;17.92;;
49241;SDS011;35079;52.704;13.814;2022-11-15T09:05:20;23.40;;;16.55;;
49241;SDS011;35079;52.704;13.814;2022-11-15T09:07:46;24.80;;;17.60;;
49241;SDS011;35079;52.704;13.814;2022-11-15T09:10:12;22.55;;;16.08;;
49241;SDS011;35079;52.704;13.814;2022-11-15T09:12:37;22.30;;;16.83;;
49241;SDS011;35079;52.704;13.814;2022-11-15T09:15:04;23.08;;;16.92;;
49241;SDS011;35079;52.704;13.814;2022-11-15T09:17:30;23.13;;;17.10;;
49241;SDS011;35079;52.704;13.814;2022-11-15T09:19:56;21.63;;;15.65;;
49241;SDS011;35079;52.704;13.814;2022-11-15T09:22:22;18.83;;;14.35;;
49241;SDS011;35079;52.704;13.814;2022-11-15T09:24:47;18.17;;;14.00;;
49241;SDS011;35079;52.704;13.814;2022-11-15T09:27:13;19.85;;;14.07;;
49241;SDS011;35079;52.704;13.814;2022-11-15T09:29:39;16.88;;;13.07;;
49241;SDS011;35079;52.704;13.814;2022-11-15T09:32:04;17.70;;;13.02;;
49241;SDS011;35079;52.704;13.814;2022-11-15T09:34:30;16.80;;;12.23;;
49241;SDS011;35079;52.704;13.814;2022-11-15T09:36:56;15.32;;;12.70;;
49241;SDS011;35079;52.704;13.814;2022-11-15T09:39:21;13.40;;;11.43;;
49241;SDS011;35079;52.704;13.814;2022-11-15T09:44:37;17.70;;;14.15;;
49241;SDS011;35079;52.704;13.814;2022-11-15T09:50:19;18.60;;;14.35;;
49241;SDS011;35079;52.704;13.814;2022-11-15T09:53:00;19.55;;;14.77;;
49241;SDS011;35079;52.704;13.814;2022-11-15T09:55:30;19.55;;;14.27;;
49241;SDS011;35079;52.704;13.814;2022-11-15T09:58:39;20.20;;;14.68;;
49241;SDS011;35079;52.704;13.814;2022-11-15T10:01:19;17.65;;;14.43;;
49241;SDS011;35079;52.704;13.814;2022-11-15T10:04:05;18.77;;;14.27;;
49241;SDS011;35079;52.704;13.814;2022-11-15T10:06:31;19.52;;;15.02;;
49241;SDS011;35079;52.704;13.814;2022-11-15T10:11:42;17.75;;;13.48;;
49241;SDS011;35079;52.704;13.814;2022-11-15T10:14:12;16.25;;;11.93;;
49241;SDS011;35079;52.704;13.814;2022-11-15T10:22:25;18.25;;;13.82;;
49241;SDS011;35079;52.704;13.814;2022-11-15T10:25:09;16.67;;;12.75;;
49241;SDS011;35079;52.704;13.814;2022-11-15T10:27:41;15.93;;;12.85;;
49241;SDS011;35079;52.704;13.814;2022-11-15T10:30:12;17.45;;;13.15;;
49241;SDS011;35079;52.704;13.814;2022-11-15T10:32:43;17.80;;;13.05;;
49241;SDS011;35079;52.704;13.814;2022-11-15T10:35:31;17.67;;;13.10;;
49241;SDS011;35079;52.704;13.814;2022-11-15T10:38:09;18.65;;;14.13;;
49241;SDS011;35079;52.704;13.814;2022-11-15T10:40:36;16.50;;;11.82;;
49241;SDS011;35079;52.704;13.814;2022-11-15T10:45:35;17.67;;;12.95;;
49241;SDS011;35079;52.704;13.814;2022-11-15T10:50:45;15.70;;;13.18;;
49241;SDS011;35079;52.704;13.814;2022-11-15T10:53:15;15.30;;;11.03;;
49241;SDS011;35079;52.704;13.814;2022-11-15T10:55:49;16.00;;;12.60;;
49241;SDS011;35079;52.704;13.814;2022-11-15T11:01:10;20.15;;;14.55;;
49241;SDS011;35079;52.704;13.814;2022-11-15T11:03:40;19.48;;;14.57;;
49241;SDS011;35079;52.704;13.814;2022-11-15T11:06:09;18.88;;;14.10;;
49241;SDS011;35079;52.704;13.814;2022-11-15T11:08:39;19.60;;;13.65;;
49241;SDS011;35079;52.704;13.814;2022-11-15T11:11:12;19.10;;;14.48;;
49241;SDS011;35079;52.704;13.814;2022-11-15T11:13:39;19.02;;;13.25;;
49241;SDS011;35079;52.704;13.814;2022-11-15T11:37:37;17.17;;;12.57;;
49241;SDS011;35079;52.704;13.814;2022-11-15T11:40:24;15.10;;;11.63;;
49241;SDS011;35079;52.704;13.814;2022-11-15T11:46:10;17.67;;;12.45;;
49241;SDS011;35079;52.704;13.814;2022-11-15T11:49:06;15.32;;;11.63;;
49241;SDS011;35079;52.704;13.814;2022-11-15T11:54:55;17.80;;;12.25;;
49241;SDS011;35079;52.704;13.814;2022-11-15T11:57:42;14.80;;;11.45;;
49241;SDS011;35079;52.704;13.814;2022-11-15T12:00:15;14.55;;;10.55;;
49241;SDS011;35079;52.704;13.814;2022-11-15T12:02:44;11.05;;;8.40;;
49241;SDS011;35079;52.704;13.814;2022-11-15T12:11:20;13.40;;;10.68;;
49241;SDS011;35079;52.704;13.814;2022-11-15T12:14:03;12.95;;;9.50;;
49241;SDS011;35079;52.704;13.814;2022-11-15T12:16:36;11.20;;;8.75;;
49241;SDS011;35079;52.704;13.814;2022-11-15T12:19:05;13.73;;;9.98;;
49241;SDS011;35079;52.704;13.814;2022-11-15T12:26:58;13.93;;;9.38;;
49241;SDS011;35079;52.704;13.814;2022-11-15T12:32:00;11.20;;;8.52;;
49241;SDS011;35079;52.704;13.814;2022-11-15T12:37:02;13.25;;;9.02;;
49241;SDS011;35079;52.704;13.814;2022-11-15T12:40:05;14.23;;;10.38;;
49241;SDS011;35079;52.704;13.814;2022-11-15T12:42:56;12.27;;;10.95;;
49241;SDS011;35079;52.704;13.814;2022-11-15T12:45:27;14.90;;;11.90;;
49241;SDS011;35079;52.704;13.814;2022-11-15T12:53:33;16.08;;;11.77;;
49241;SDS011;35079;52.704;13.814;2022-11-15T12:56:17;16.55;;;11.88;;
49241;SDS011;35079;52.704;13.814;2022-11-15T12:58:53;13.65;;;10.55;;
49241;SDS011;35079;52.704;13.814;2022-11-15T13:06:44;16.95;;;13.25;;
49241;SDS011;35079;52.704;13.814;2022-11-15T13:12:02;19.42;;;15.45;;
49241;SDS011;35079;52.704;13.814;2022-11-15T13:14:39;20.67;;;16.38;;
49241;SDS011;35079;52.704;13.814;2022-11-15T13:20:02;17.60;;;14.95;;
49241;SDS011;35079;52.704;13.814;2022-11-15T13:22:29;21.25;;;15.68;;
49241;SDS011;35079;52.704;13.814;2022-11-15T13:30:48;19.52;;;16.13;;
49241;SDS011;35079;52.704;13.814;2022-11-15T13:33:18;20.30;;;15.52;;
49241;SDS011;35079;52.704;13.814;2022-11-15T13:35:51;19.52;;;15.30;;
49241;SDS011;35079;52.704;13.814;2022-11-15T13:38:30;17.73;;;14.23;;
49241;SDS011;35079;52.704;13.814;2022-11-15T13:40:58;17.35;;;14.15;;
49241;SDS011;35079;52.704;13.814;2022-11-15T13:48:31;20.33;;;16.75;;
49241;SDS011;35079;52.704;13.814;2022-11-15T13:50:58;21.10;;;16.48;;
49241;SDS011;35079;52.704;13.814;2022-11-15T13:53:25;19.25;;;15.95;;
49241;SDS011;35079;52.704;13.814;2022-11-15T13:55:51;25.27;;;19.52;;
49241;SDS011;35079;52.704;13.814;2022-11-15T13:58:20;26.52;;;18.73;;
49241;SDS011;35079;52.704;13.814;2022-11-15T14:00:46;24.13;;;18.30;;
49241;SDS011;35079;52.704;13.814;2022-11-15T14:03:15;22.90;;;17.60;;
49241;SDS011;35079;52.704;13.814;2022-11-15T14:05:41;22.80;;;17.95;;
49241;SDS011;35079;52.704;13.814;2022-11-15T14:08:26;24.65;;;18.48;;
49241;SDS011;35079;52.704;13.814;2022-11-15T14:11:08;22.10;;;18.05;;
49241;SDS011;35079;52.704;13.814;2022-11-15T14:13:34;22.02;;;17.50;;
49241;SDS011;35079;52.704;13.814;2022-11-15T14:16:17;22.92;;;17.30;;
49241;SDS011;35079;52.704;13.814;2022-11-15T14:18:52;21.92;;;17.58;;
49241;SDS011;35079;52.704;13.814;2022-11-15T14:21:19;22.67;;;18.00;;
49241;SDS011;35079;52.704;13.814;2022-11-15T14:23:45;22.77;;;17.70;;
49241;SDS011;35079;52.704;13.814;2022-11-15T14:26:33;23.75;;;18.02;;
49241;SDS011;35079;52.704;13.814;2022-11-15T14:34:44;26.95;;;19.55;;
49241;SDS011;35079;52.704;13.814;2022-11-15T14:37:29;26.40;;;20.20;;
49241;SDS011;35079;52.704;13.814;2022-11-15T14:40:00;26.30;;;19.77;;
49241;SDS011;35079;52.704;13.814;2022-11-15T14:42:27;26.65;;;19.45;;
49241;SDS011;35079;52.704;13.814;2022-11-15T14:44:53;26.65;;;19.83;;
49241;SDS011;35079;52.704;13.814;2022-11-15T14:47:19;26.95;;;19.27;;
49241;SDS011;35079;52.704;13.814;2022-11-15T14:49:45;31.35;;;22.75;;
49241;SDS011;35079;52.704;13.814;2022-11-15T14:52:27;34.40;;;22.83;;
49241;SDS011;35079;52.704;13.814;2022-11-15T14:54:55;34.78;;;22.90;;
49241;SDS011;35079;52.704;13.814;2022-11-15T14:57:22;32.55;;;23.25;;
49241;SDS011;35079;52.704;13.814;2022-11-15T14:59:48;41.75;;;27.45;;
49241;SDS011;35079;52.704;13.814;2022-11-15T15:02:24;36.53;;;24.90;;
49241;SDS011;35079;52.704;13.814;2022-11-15T15:04:51;40.42;;;26.15;;
49241;SDS011;35079;52.704;13.814;2022-11-15T15:07:17;43.95;;;29.20;;
49241;SDS011;35079;52.704;13.814;2022-11-15T15:09:44;41.75;;;29.15;;
49241;SDS011;35079;52.704;13.814;2022-11-15T15:12:17;47.58;;;30.02;;
49241;SDS011;35079;52.704;13.814;2022-11-15T15:17:11;45.38;;;30.42;;
49241;SDS011;35079;52.704;13.814;2022-11-15T15:19:48;48.15;;;30.70;;
49241;SDS011;35079;52.704;13.814;2022-11-15T15:22:15;51.45;;;32.05;;
49241;SDS011;35079;52.704;13.814;2022-11-15T15:24:43;50.78;;;32.00;;
49241;SDS011;35079;52.704;13.814;2022-11-15T15:27:10;49.75;;;32.15;;
49241;SDS011;35079;52.704;13.814;2022-11-15T15:29:36;47.45;;;31.63;;
49241;SDS011;35079;52.704;13.814;2022-11-15T15:32:02;46.63;;;31.33;;
49241;SDS011;35079;52.704;13.814;2022-11-15T15:34:28;50.03;;;29.83;;
49241;SDS011;35079;52.704;13.814;2022-11-15T15:39:52;49.70;;;31.88;;
49241;SDS011;35079;52.704;13.814;2022-11-15T15:42:19;50.53;;;29.83;;
49241;SDS011;35079;52.704;13.814;2022-11-15T15:44:48;48.53;;;30.42;;
49241;SDS011;35079;52.704;13.814;2022-11-15T15:47:16;51.03;;;30.27;;
49241;SDS011;35079;52.704;13.814;2022-11-15T15:49:46;50.88;;;30.05;;
49241;SDS011;35079;52.704;13.814;2022-11-15T15:52:12;51.92;;;30.50;;
49241;SDS011;35079;52.704;13.814;2022-11-15T15:54:38;48.45;;;31.10;;
49241;SDS011;35079;52.704;13.814;2022-11-15T15:57:05;51.35;;;30.52;;
49241;SDS011;35079;52.704;13.814;2022-11-15T15:59:31;47.22;;;29.33;;
49241;SDS011;35079;52.704;13.814;2022-11-15T16:01:57;42.17;;;27.58;;
49241;SDS011;35079;52.704;13.814;2022-11-15T16:04:23;44.10;;;27.85;;
49241;SDS011;35079;52.704;13.814;2022-11-15T16:06:49;41.85;;;28.10;;
49241;SDS011;35079;52.704;13.814;2022-11-15T16:09:17;43.10;;;27.17;;
49241;SDS011;35079;52.704;13.814;2022-11-15T16:12:04;42.38;;;27.58;;
49241;SDS011;35079;52.704;13.814;2022-11-15T16:14:30;40.03;;;27.15;;
49241;SDS011;35079;52.704;13.814;2022-11-15T16:16:56;43.10;;;28.25;;
49241;SDS011;35079;52.704;13.814;2022-11-15T16:19:22;42.67;;;27.92;;
49241;SDS011;35079;52.704;13.814;2022-11-15T16:21:48;44.88;;;28.60;;
49241;SDS011;35079;52.704;13.814;2022-11-15T16:24:13;39.90;;;27.52;;
49241;SDS011;35079;52.704;13.814;2022-11-15T16:26:39;42.80;;;28.50;;
49241;SDS011;35079;52.704;13.814;2022-11-15T16:29:05;42.28;;;28.75;;
49241;SDS011;35079;52.704;13.814;2022-11-15T16:31:32;45.38;;;29.75;;
49241;SDS011;35079;52.704;13.814;2022-11-15T16:33:57;40.50;;;28.23;;
49241;SDS011;35079;52.704;13.814;2022-11-15T16:36:24;39.63;;;27.55;;
49241;SDS011;35079;52.704;13.814;2022-11-15T16:38:51;39.55;;;26.77;;
49241;SDS011;35079;52.704;13.814;2022-11-15T16:41:17;42.05;;;27.10;;
49241;SDS011;35079;52.704;13.814;2022-11-15T16:43:47;44.17;;;26.98;;
49241;SDS011;35079;52.704;13.814;2022-11-15T16:46:17;39.97;;;26.80;;
49241;SDS011;35079;52.704;13.814;2022-11-15T16:48:45;39.63;;;26.50;;